Time;durP1;ratioP1;P1;durP2;ratioP2;P2;SDS_P1;SDS_P2;PMS_P1;PMS_P2;Temp;Humidity;BMP_temperature;BMP_pressure;BME280_temperature;BME280_humidity;BME280_pressure;Samples;Min_cycle;Max_cycle;Signal;HPM_P1;HPM_P2
2021/07/29 00:00:32;;;;;;;3.00;2.57;;;;;;;;;;5071296;28;20179;-83
2021/07/29 00:02:58;;;;;;;5.10;2.70;;;;;;;;;;5056919;28;20287;-83
2021/07/29 00:05:24;;;;;;;2.50;2.30;;;;;;;;;;5054931;28;20192;-83
2021/07/29 00:07:51;;;;;;;4.10;2.77;;;;;;;;;;5053831;28;20206;-83
2021/07/29 00:10:17;;;;;;;3.03;2.73;;;;;;;;;;5055451;28;20193;-83
2021/07/29 00:12:43;;;;;;;3.40;2.77;;;;;;;;;;5055981;28;20188;-83
2021/07/29 00:15:11;;;;;;;3.47;2.87;;;;;;;;;;5073579;28;20270;-83
2021/07/29 00:20:18;;;;;;;2.60;2.40;;;;;;;;;;5073066;28;20241;-83
2021/07/29 00:22:45;;;;;;;2.70;2.50;;;;;;;;;;5055015;28;20177;-83
2021/07/29 00:25:12;;;;;;;3.37;2.73;;;;;;;;;;5054842;28;20192;-83
2021/07/29 00:27:42;;;;;;;2.53;2.20;;;;;;;;;;5050674;28;20226;-83
2021/07/29 00:30:09;;;;;;;2.80;2.53;;;;;;;;;;5045250;28;20169;-83
2021/07/29 00:32:35;;;;;;;3.00;2.80;;;;;;;;;;5048282;28;20216;-83
2021/07/29 00:35:05;;;;;;;3.70;2.67;;;;;;;;;;5083332;28;20185;-83
2021/07/29 00:37:32;;;;;;;4.33;2.13;;;;;;;;;;5053053;28;20191;-83
2021/07/29 00:39:58;;;;;;;2.37;2.13;;;;;;;;;;5053619;28;20184;-83
2021/07/29 00:42:24;;;;;;;5.57;2.97;;;;;;;;;;5072701;28;20173;-83
2021/07/29 00:44:50;;;;;;;2.50;2.30;;;;;;;;;;5055088;28;20611;-83
2021/07/29 00:47:19;;;;;;;4.97;2.60;;;;;;;;;;5072583;28;20188;-83
2021/07/29 00:49:47;;;;;;;2.73;2.40;;;;;;;;;;5050882;28;20177;-83
2021/07/29 00:52:18;;;;;;;2.47;2.20;;;;;;;;;;5049654;28;20173;-83
2021/07/29 00:54:45;;;;;;;2.67;2.20;;;;;;;;;;5054834;28;20287;-83
2021/07/29 00:57:11;;;;;;;2.80;2.50;;;;;;;;;;5054351;28;20220;-83
2021/07/29 00:59:37;;;;;;;3.73;2.60;;;;;;;;;;5050703;28;20182;-83
2021/07/29 01:02:04;;;;;;;2.17;1.97;;;;;;;;;;5072787;28;20246;-83
2021/07/29 01:04:30;;;;;;;2.90;2.43;;;;;;;;;;5080168;28;20507;-83
2021/07/29 01:06:56;;;;;;;2.50;2.30;;;;;;;;;;5055959;28;20203;-83
2021/07/29 01:09:22;;;;;;;2.60;2.40;;;;;;;;;;5053336;28;20562;-83
2021/07/29 01:11:48;;;;;;;2.67;2.30;;;;;;;;;;5072412;28;20531;-83
2021/07/29 01:14:15;;;;;;;2.70;2.20;;;;;;;;;;5055192;28;20200;-83
2021/07/29 01:16:41;;;;;;;2.33;2.13;;;;;;;;;;5054774;28;20179;-84
2021/07/29 01:19:08;;;;;;;3.67;2.70;;;;;;;;;;5054005;28;20175;-84
2021/07/29 01:21:34;;;;;;;2.50;2.30;;;;;;;;;;5055070;28;20198;-83
2021/07/29 01:24:01;;;;;;;3.37;2.57;;;;;;;;;;5088207;28;20263;-83
2021/07/29 01:26:27;;;;;;;3.80;2.67;;;;;;;;;;5054829;28;20186;-84
2021/07/29 01:28:53;;;;;;;2.53;2.23;;;;;;;;;;5072847;28;20179;-83
2021/07/29 01:31:19;;;;;;;4.67;2.30;;;;;;;;;;5054848;28;20193;-83
2021/07/29 01:33:46;;;;;;;4.80;2.50;;;;;;;;;;5073434;28;20171;-84
2021/07/29 01:36:12;;;;;;;3.17;2.70;;;;;;;;;;5060098;28;20437;-83
2021/07/29 01:38:38;;;;;;;2.70;2.50;;;;;;;;;;5060847;28;20182;-83
2021/07/29 01:41:04;;;;;;;2.50;2.30;;;;;;;;;;5058689;28;20263;-83
2021/07/29 01:43:30;;;;;;;2.27;2.07;;;;;;;;;;5042126;28;20193;-83
2021/07/29 01:45:57;;;;;;;3.07;2.50;;;;;;;;;;5073537;28;20174;-83
2021/07/29 01:48:23;;;;;;;2.23;2.03;;;;;;;;;;5054307;28;20268;-83
2021/07/29 01:50:49;;;;;;;3.13;2.57;;;;;;;;;;5057563;28;20184;-84
2021/07/29 01:53:15;;;;;;;2.30;2.10;;;;;;;;;;5057744;28;20189;-83
2021/07/29 01:55:42;;;;;;;3.43;2.37;;;;;;;;;;5057413;28;20674;-83
2021/07/29 01:58:09;;;;;;;3.03;2.63;;;;;;;;;;5061754;28;20176;-83
2021/07/29 02:00:35;;;;;;;2.53;2.33;;;;;;;;;;5060949;28;20177;-83
2021/07/29 02:03:03;;;;;;;4.07;2.67;;;;;;;;;;5079257;28;20172;-83
2021/07/29 02:05:29;;;;;;;3.00;2.27;;;;;;;;;;5057583;28;20180;-83
2021/07/29 02:07:55;;;;;;;2.40;2.20;;;;;;;;;;5066544;28;20196;-83
2021/07/29 02:10:21;;;;;;;3.33;2.20;;;;;;;;;;5063398;28;20523;-83
2021/07/29 02:12:47;;;;;;;4.07;2.30;;;;;;;;;;5080119;28;20180;-83
2021/07/29 02:15:13;;;;;;;2.50;2.30;;;;;;;;;;5074706;28;20196;-83
2021/07/29 02:17:39;;;;;;;2.33;2.13;;;;;;;;;;5058327;28;20177;-83
2021/07/29 02:20:06;;;;;;;2.80;2.30;;;;;;;;;;5081877;28;20203;-83
2021/07/29 02:22:32;;;;;;;2.87;2.00;;;;;;;;;;5072441;28;20240;-83
2021/07/29 02:24:58;;;;;;;2.67;2.43;;;;;;;;;;5061515;28;20188;-83
2021/07/29 02:27:24;;;;;;;3.30;2.30;;;;;;;;;;5062524;28;20180;-83
2021/07/29 02:29:50;;;;;;;3.20;2.47;;;;;;;;;;5065603;28;20176;-83
2021/07/29 02:32:17;;;;;;;3.33;2.43;;;;;;;;;;5058893;28;20676;-83
2021/07/29 02:34:43;;;;;;;2.50;2.30;;;;;;;;;;5058417;28;20192;-82
2021/07/29 02:37:09;;;;;;;2.23;2.03;;;;;;;;;;5059633;28;20221;-83
2021/07/29 02:39:36;;;;;;;2.60;2.33;;;;;;;;;;5059462;28;20172;-83
2021/07/29 02:42:02;;;;;;;4.00;2.30;;;;;;;;;;5078372;28;20274;-83
2021/07/29 02:44:28;;;;;;;3.33;2.43;;;;;;;;;;5095848;28;20195;-83
2021/07/29 02:46:55;;;;;;;2.57;2.07;;;;;;;;;;5094375;28;20176;-83
2021/07/29 02:49:21;;;;;;;2.73;2.20;;;;;;;;;;5084443;28;20199;-83
2021/07/29 02:51:47;;;;;;;2.70;2.50;;;;;;;;;;5109874;28;20181;-82
2021/07/29 02:54:13;;;;;;;2.63;2.43;;;;;;;;;;5089955;28;20196;-83
2021/07/29 02:56:39;;;;;;;2.57;2.23;;;;;;;;;;5079411;28;20292;-83
2021/07/29 02:59:05;;;;;;;4.03;2.63;;;;;;;;;;5075607;28;20164;-83
2021/07/29 03:01:31;;;;;;;5.83;2.60;;;;;;;;;;5094487;28;20191;-82
2021/07/29 03:03:57;;;;;;;3.07;2.53;;;;;;;;;;5074702;28;20167;-83
2021/07/29 03:06:23;;;;;;;2.50;1.93;;;;;;;;;;5069074;28;20252;-83
2021/07/29 03:08:49;;;;;;;2.50;2.20;;;;;;;;;;5068796;28;20188;-83
2021/07/29 03:11:16;;;;;;;2.53;2.33;;;;;;;;;;5077246;28;20176;-83
2021/07/29 03:13:42;;;;;;;2.63;2.27;;;;;;;;;;5065487;28;20276;-83
2021/07/29 03:16:08;;;;;;;5.23;2.23;;;;;;;;;;5065314;28;20212;-83
2021/07/29 03:18:34;;;;;;;3.57;2.20;;;;;;;;;;5074787;28;20175;-83
2021/07/29 03:21:00;;;;;;;2.73;2.53;;;;;;;;;;5062896;28;20172;-83
2021/07/29 03:23:27;;;;;;;2.70;2.40;;;;;;;;;;5090409;28;20187;-83
2021/07/29 03:25:53;;;;;;;3.50;2.20;;;;;;;;;;5084966;28;20207;-83
2021/07/29 03:28:20;;;;;;;5.10;2.53;;;;;;;;;;5081652;28;20180;-83
2021/07/29 03:30:46;;;;;;;3.40;2.38;;;;;;;;;;5061721;28;20438;-83
2021/07/29 03:33:12;;;;;;;2.70;2.50;;;;;;;;;;5062272;28;20177;-84
2021/07/29 03:35:38;;;;;;;3.07;2.50;;;;;;;;;;5061467;28;20209;-83
2021/07/29 03:38:05;;;;;;;4.00;2.40;;;;;;;;;;5069363;28;20179;-83
2021/07/29 03:40:31;;;;;;;3.47;2.30;;;;;;;;;;5060926;28;20594;-83
2021/07/29 03:43:01;;;;;;;3.37;2.20;;;;;;;;;;5078011;28;20313;-84
2021/07/29 03:45:27;;;;;;;3.07;2.43;;;;;;;;;;5060633;28;20706;-83
2021/07/29 03:47:53;;;;;;;3.70;2.40;;;;;;;;;;5060562;28;20184;-83
2021/07/29 03:50:19;;;;;;;3.97;2.47;;;;;;;;;;5066887;28;20219;-83
2021/07/29 03:52:45;;;;;;;2.70;2.43;;;;;;;;;;5095318;28;20205;-84
2021/07/29 03:55:11;;;;;;;3.90;2.60;;;;;;;;;;5078870;28;20201;-83
2021/07/29 03:57:37;;;;;;;4.87;2.37;;;;;;;;;;5075683;28;20325;-84
2021/07/29 04:00:04;;;;;;;5.57;3.57;;;;;;;;;;5058218;28;20177;-83
2021/07/29 04:02:30;;;;;;;3.00;2.77;;;;;;;;;;5057837;28;20181;-84
2021/07/29 04:04:57;;;;;;;3.03;2.23;;;;;;;;;;5056776;28;20195;-84
2021/07/29 04:07:23;;;;;;;3.70;2.63;;;;;;;;;;5058078;28;20200;-83
2021/07/29 04:09:50;;;;;;;2.27;2.07;;;;;;;;;;5057739;28;20177;-83
2021/07/29 04:12:16;;;;;;;2.30;2.10;;;;;;;;;;5057529;28;20199;-84
2021/07/29 04:14:42;;;;;;;4.10;2.30;;;;;;;;;;5057436;28;20784;-83
2021/07/29 04:17:09;;;;;;;3.30;2.30;;;;;;;;;;5056848;28;20184;-84
2021/07/29 04:19:35;;;;;;;4.13;2.50;;;;;;;;;;5073948;28;20175;-83
2021/07/29 04:22:01;;;;;;;2.63;1.97;;;;;;;;;;5057020;28;20240;-83
2021/07/29 04:24:28;;;;;;;4.53;2.37;;;;;;;;;;5057200;28;20192;-83
2021/07/29 04:26:55;;;;;;;2.87;2.60;;;;;;;;;;5070988;28;20281;-83
2021/07/29 04:29:21;;;;;;;4.53;2.87;;;;;;;;;;5080371;28;20188;-83
2021/07/29 04:31:47;;;;;;;2.93;2.30;;;;;;;;;;5068850;28;20203;-83
2021/07/29 04:34:13;;;;;;;3.67;2.20;;;;;;;;;;5073736;28;20207;-83
2021/07/29 04:36:39;;;;;;;5.43;2.70;;;;;;;;;;5089992;28;20173;-83
2021/07/29 04:39:06;;;;;;;3.90;2.60;;;;;;;;;;5073814;28;20177;-83
2021/07/29 04:41:32;;;;;;;4.67;2.53;;;;;;;;;;5055320;28;20651;-83
2021/07/29 04:43:58;;;;;;;4.10;2.27;;;;;;;;;;5055986;28;20185;-83
2021/07/29 04:46:24;;;;;;;2.73;2.13;;;;;;;;;;5054840;28;20188;-84
2021/07/29 04:48:50;;;;;;;4.43;2.47;;;;;;;;;;5055112;28;20187;-82
2021/07/29 04:51:16;;;;;;;4.30;2.60;;;;;;;;;;5052548;28;20181;-82
2021/07/29 04:53:42;;;;;;;3.00;2.70;;;;;;;;;;5054740;28;20172;-82
2021/07/29 04:56:08;;;;;;;3.07;2.30;;;;;;;;;;5054663;28;20251;-82
2021/07/29 04:58:34;;;;;;;3.13;2.10;;;;;;;;;;5055176;28;20168;-82
2021/07/29 05:01:04;;;;;;;3.60;2.03;;;;;;;;;;5047392;28;20230;-82
2021/07/29 05:03:30;;;;;;;5.60;2.83;;;;;;;;;;5073278;28;20184;-82
2021/07/29 05:05:56;;;;;;;3.23;2.17;;;;;;;;;;5054634;28;20177;-82
2021/07/29 05:08:22;;;;;;;3.03;2.43;;;;;;;;;;5054490;28;20264;-82
2021/07/29 05:10:48;;;;;;;3.20;2.17;;;;;;;;;;5053674;28;20212;-83
2021/07/29 05:13:14;;;;;;;4.53;2.47;;;;;;;;;;5071566;28;20259;-82
2021/07/29 05:15:41;;;;;;;3.63;2.63;;;;;;;;;;5053610;28;20282;-82
2021/07/29 05:18:07;;;;;;;5.73;2.93;;;;;;;;;;5054469;28;20210;-82
2021/07/29 05:20:33;;;;;;;5.27;2.07;;;;;;;;;;5071131;28;20172;-82
2021/07/29 05:22:59;;;;;;;2.73;2.40;;;;;;;;;;5071399;28;20177;-82
2021/07/29 05:25:25;;;;;;;4.47;2.20;;;;;;;;;;5071699;28;20180;-82
2021/07/29 05:27:51;;;;;;;3.50;2.33;;;;;;;;;;5052980;28;20572;-82
2021/07/29 05:30:18;;;;;;;5.83;2.37;;;;;;;;;;5055127;28;20990;-82
2021/07/29 05:32:44;;;;;;;4.00;2.40;;;;;;;;;;5053469;28;20176;-82
2021/07/29 05:35:10;;;;;;;2.63;2.30;;;;;;;;;;5068987;28;20561;-81
2021/07/29 05:37:36;;;;;;;2.27;2.03;;;;;;;;;;5053597;28;20267;-81
2021/07/29 05:40:02;;;;;;;4.70;2.33;;;;;;;;;;5072495;28;20180;-82
2021/07/29 05:42:30;;;;;;;4.53;2.50;;;;;;;;;;5078137;28;20180;-82
2021/07/29 05:44:56;;;;;;;4.13;2.63;;;;;;;;;;5054251;28;20217;-81
2021/07/29 05:47:22;;;;;;;4.53;2.20;;;;;;;;;;5071482;28;20233;-82
2021/07/29 05:49:48;;;;;;;2.83;1.90;;;;;;;;;;5053225;28;20492;-82
2021/07/29 05:52:14;;;;;;;2.77;2.07;;;;;;;;;;5050012;28;20177;-83
2021/07/29 05:54:40;;;;;;;2.73;2.17;;;;;;;;;;5053315;28;20207;-80
2021/07/29 05:57:06;;;;;;;5.93;2.00;;;;;;;;;;5056006;28;20208;-82
2021/07/29 05:59:32;;;;;;;2.27;2.03;;;;;;;;;;5053588;28;20180;-81
2021/07/29 06:01:58;;;;;;;4.90;3.03;;;;;;;;;;5053511;28;20180;-81
2021/07/29 06:04:24;;;;;;;5.33;2.43;;;;;;;;;;5062425;28;20200;-82
2021/07/29 06:06:50;;;;;;;2.87;1.77;;;;;;;;;;5071460;28;20200;-81
2021/07/29 06:09:17;;;;;;;4.00;2.20;;;;;;;;;;5037390;28;20336;-82
2021/07/29 06:11:43;;;;;;;4.37;2.20;;;;;;;;;;5053014;28;20672;-83
2021/07/29 06:14:09;;;;;;;2.70;1.90;;;;;;;;;;5052652;28;20219;-83
2021/07/29 06:16:35;;;;;;;2.90;2.10;;;;;;;;;;5047032;28;20650;-81
2021/07/29 06:19:05;;;;;;;5.33;2.17;;;;;;;;;;5053443;28;20184;-81
2021/07/29 06:21:32;;;;;;;6.37;2.43;;;;;;;;;;5046907;28;20165;-81
2021/07/29 06:23:58;;;;;;;2.97;2.00;;;;;;;;;;5056325;28;20538;-81
2021/07/29 06:26:24;;;;;;;4.50;2.47;;;;;;;;;;5073955;28;20285;-81
2021/07/29 06:28:50;;;;;;;3.23;2.50;;;;;;;;;;5056419;28;20244;-81
2021/07/29 06:31:16;;;;;;;6.30;2.30;;;;;;;;;;5075069;28;20180;-82
2021/07/29 06:33:42;;;;;;;3.87;1.90;;;;;;;;;;5056487;28;20176;-81
2021/07/29 06:36:08;;;;;;;5.33;2.20;;;;;;;;;;5056657;28;20196;-81
2021/07/29 06:38:34;;;;;;;4.40;3.27;;;;;;;;;;5045480;28;20536;-82
2021/07/29 06:41:03;;;;;;;4.87;2.60;;;;;;;;;;5074159;28;20168;-81
2021/07/29 06:43:29;;;;;;;4.37;2.20;;;;;;;;;;5040478;28;20276;-81
2021/07/29 06:45:56;;;;;;;2.40;2.20;;;;;;;;;;5064828;28;20187;-82
2021/07/29 06:48:22;;;;;;;3.40;2.27;;;;;;;;;;5056732;28;20176;-81
2021/07/29 06:50:48;;;;;;;7.70;2.27;;;;;;;;;;5073458;28;20249;-81
2021/07/29 06:53:14;;;;;;;6.20;1.93;;;;;;;;;;5058783;28;20671;-82
2021/07/29 06:55:40;;;;;;;3.73;1.90;;;;;;;;;;5077341;28;20644;-84
2021/07/29 06:58:06;;;;;;;2.80;2.10;;;;;;;;;;5058841;28;20220;-83
2021/07/29 07:00:32;;;;;;;4.53;2.57;;;;;;;;;;5112899;28;20181;-81
2021/07/29 07:03:00;;;;;;;2.93;2.10;;;;;;;;;;5111253;28;20188;-82
2021/07/29 07:05:26;;;;;;;2.97;2.00;;;;;;;;;;5112882;28;20209;-82
2021/07/29 07:07:52;;;;;;;4.23;2.37;;;;;;;;;;5097597;28;20197;-82
2021/07/29 07:10:18;;;;;;;3.40;2.20;;;;;;;;;;5076945;28;20176;-81
2021/07/29 07:12:45;;;;;;;5.40;2.80;;;;;;;;;;5088937;28;20202;-84
2021/07/29 07:15:11;;;;;;;5.43;2.40;;;;;;;;;;5093720;28;20543;-84
2021/07/29 07:17:37;;;;;;;6.97;2.50;;;;;;;;;;5100441;28;20535;-83
2021/07/29 07:20:04;;;;;;;7.67;2.03;;;;;;;;;;5073083;28;20168;-82
2021/07/29 07:22:30;;;;;;;2.63;2.20;;;;;;;;;;5088417;28;20168;-82
2021/07/29 07:24:56;;;;;;;3.03;2.00;;;;;;;;;;5076306;28;20266;-81
2021/07/29 07:27:23;;;;;;;6.17;2.30;;;;;;;;;;5110890;28;20718;-81
2021/07/29 07:29:49;;;;;;;3.80;2.00;;;;;;;;;;5077147;28;20236;-81
2021/07/29 07:32:15;;;;;;;6.83;2.83;;;;;;;;;;5078225;28;20202;-81
2021/07/29 07:34:41;;;;;;;5.30;2.43;;;;;;;;;;5097223;28;20255;-81
2021/07/29 07:37:07;;;;;;;4.83;2.27;;;;;;;;;;5077346;28;20172;-81
2021/07/29 07:39:35;;;;;;;4.60;2.27;;;;;;;;;;5070192;28;20183;-81
2021/07/29 07:42:01;;;;;;;5.67;2.27;;;;;;;;;;5095684;28;20656;-82
2021/07/29 07:44:27;;;;;;;9.73;2.30;;;;;;;;;;5076554;28;20175;-81
2021/07/29 07:46:54;;;;;;;2.67;1.80;;;;;;;;;;5076862;28;20180;-81
2021/07/29 07:49:20;;;;;;;3.60;2.10;;;;;;;;;;5076608;28;20198;-81
2021/07/29 07:51:46;;;;;;;8.93;2.20;;;;;;;;;;5077379;28;20184;-81
2021/07/29 07:54:13;;;;;;;7.17;2.80;;;;;;;;;;5110949;28;20317;-81
2021/07/29 07:56:43;;;;;;;3.47;2.30;;;;;;;;;;5087904;28;20982;-81
2021/07/29 07:59:09;;;;;;;3.57;2.40;;;;;;;;;;5074693;28;20192;-82
2021/07/29 08:01:37;;;;;;;4.67;2.37;;;;;;;;;;5055972;28;20169;-81
2021/07/29 08:04:03;;;;;;;4.43;2.30;;;;;;;;;;5056053;28;20177;-83
2021/07/29 08:06:29;;;;;;;4.80;2.30;;;;;;;;;;5054909;28;20754;-81
2021/07/29 08:08:55;;;;;;;4.13;2.20;;;;;;;;;;5074839;28;20263;-81
2021/07/29 08:11:21;;;;;;;3.97;2.13;;;;;;;;;;5051437;28;20197;-81
2021/07/29 08:13:47;;;;;;;8.33;2.33;;;;;;;;;;5087436;28;20271;-81
2021/07/29 08:16:13;;;;;;;4.73;2.43;;;;;;;;;;5055435;28;20200;-81
2021/07/29 08:18:39;;;;;;;5.73;2.60;;;;;;;;;;5073828;28;20176;-82
2021/07/29 08:21:15;;;;;;;4.03;2.17;;;;;;;;;;5055868;28;20726;-82
2021/07/29 08:23:41;;;;;;;6.17;2.37;;;;;;;;;;5056321;28;20596;-83
2021/07/29 08:26:08;;;;;;;2.63;2.10;;;;;;;;;;5055383;28;20187;-82
2021/07/29 08:28:35;;;;;;;6.67;2.23;;;;;;;;;;5055476;28;20659;-82
2021/07/29 08:31:01;;;;;;;3.10;2.20;;;;;;;;;;5055725;28;20223;-82
2021/07/29 08:33:27;;;;;;;2.10;1.70;;;;;;;;;;5051007;28;20184;-82
2021/07/29 08:35:53;;;;;;;4.80;2.23;;;;;;;;;;5073187;28;20774;-82
2021/07/29 08:38:19;;;;;;;4.13;2.40;;;;;;;;;;5055690;28;20222;-82
2021/07/29 08:40:45;;;;;;;9.27;2.33;;;;;;;;;;5056166;28;20607;-82
2021/07/29 08:43:11;;;;;;;5.77;2.27;;;;;;;;;;5074324;28;20247;-82
2021/07/29 08:45:42;;;;;;;4.50;2.20;;;;;;;;;;5055979;28;20180;-82
2021/07/29 08:48:10;;;;;;;7.77;2.70;;;;;;;;;;5074223;28;20183;-82
2021/07/29 08:50:36;;;;;;;5.93;2.40;;;;;;;;;;5055013;28;20291;-82
2021/07/29 08:53:02;;;;;;;5.90;2.17;;;;;;;;;;5051893;28;20287;-82
2021/07/29 08:55:28;;;;;;;4.13;2.13;;;;;;;;;;5073541;28;20212;-82
2021/07/29 08:57:54;;;;;;;3.60;1.97;;;;;;;;;;5054530;28;20216;-83
2021/07/29 09:00:20;;;;;;;5.37;2.53;;;;;;;;;;5073473;28;20184;-83
2021/07/29 09:02:46;;;;;;;5.53;2.30;;;;;;;;;;5073349;28;20410;-83
2021/07/29 09:05:17;;;;;;;4.73;2.20;;;;;;;;;;5072311;28;20173;-82
2021/07/29 09:07:44;;;;;;;4.73;2.37;;;;;;;;;;5073490;28;20268;-82
2021/07/29 09:10:26;;;;;;;4.23;2.00;;;;;;;;;;5055383;28;20233;-82
2021/07/29 09:13:11;;;;;;;4.03;2.20;;;;;;;;;;5072595;28;20181;-82
2021/07/29 09:15:37;;;;;;;4.47;2.40;;;;;;;;;;5068250;28;20205;-83
2021/07/29 09:18:04;;;;;;;2.93;2.00;;;;;;;;;;5056625;28;20160;-84
2021/07/29 09:20:30;;;;;;;3.87;2.00;;;;;;;;;;5053802;28;20176;-84
2021/07/29 09:22:57;;;;;;;3.83;1.93;;;;;;;;;;5054769;28;20180;-82
2021/07/29 09:25:24;;;;;;;3.23;1.97;;;;;;;;;;5054881;28;20202;-85
2021/07/29 09:27:51;;;;;;;3.93;2.30;;;;;;;;;;5054464;28;20187;-84
2021/07/29 09:30:24;;;;;;;3.47;1.67;;;;;;;;;;5054178;28;20185;-84
2021/07/29 09:32:58;;;;;;;3.27;1.70;;;;;;;;;;5054393;28;20189;-85
2021/07/29 09:35:44;;;;;;;4.50;2.83;;;;;;;;;;5053896;28;20194;-86
2021/07/29 09:38:20;;;;;;;5.93;2.10;;;;;;;;;;5054019;28;20637;-86
2021/07/29 09:40:46;;;;;;;3.73;2.17;;;;;;;;;;5050730;28;20180;-85
2021/07/29 09:43:14;;;;;;;2.33;1.97;;;;;;;;;;5048385;28;20640;-81
2021/07/29 09:45:41;;;;;;;4.37;2.00;;;;;;;;;;5053312;28;20178;-80
2021/07/29 09:48:08;;;;;;;3.67;2.17;;;;;;;;;;5053864;28;20182;-80
2021/07/29 09:50:34;;;;;;;4.57;2.07;;;;;;;;;;5071701;28;20508;-81
2021/07/29 09:53:01;;;;;;;5.80;2.40;;;;;;;;;;5052965;28;20444;-81
2021/07/29 09:55:30;;;;;;;3.87;2.00;;;;;;;;;;5054152;28;20204;-81
2021/07/29 09:57:57;;;;;;;3.03;2.10;;;;;;;;;;5075620;28;20289;-80
2021/07/29 10:00:23;;;;;;;2.73;1.97;;;;;;;;;;5045173;28;20196;-80
2021/07/29 10:02:49;;;;;;;4.40;2.77;;;;;;;;;;5076197;28;20510;-81
2021/07/29 10:05:17;;;;;;;6.50;2.50;;;;;;;;;;5056827;28;20179;-81
2021/07/29 10:07:46;;;;;;;4.77;3.00;;;;;;;;;;5055934;28;20225;-80
2021/07/29 10:10:12;;;;;;;4.80;2.40;;;;;;;;;;5056932;28;20284;-80
2021/07/29 10:12:38;;;;;;;4.00;2.33;;;;;;;;;;5056751;28;20649;-80
2021/07/29 10:15:05;;;;;;;6.33;2.30;;;;;;;;;;5056876;28;20200;-82
2021/07/29 10:17:43;;;;;;;5.53;2.53;;;;;;;;;;5075116;28;20704;-82
2021/07/29 10:20:12;;;;;;;6.43;2.73;;;;;;;;;;5055390;28;20244;-80
2021/07/29 10:22:38;;;;;;;7.20;3.10;;;;;;;;;;5059081;28;20184;-80
2021/07/29 10:25:05;;;;;;;5.20;2.27;;;;;;;;;;5056811;28;20182;-82
2021/07/29 10:27:31;;;;;;;5.60;2.47;;;;;;;;;;5056002;28;20279;-80
2021/07/29 10:30:15;;;;;;;6.07;2.60;;;;;;;;;;5056394;28;20196;-81
2021/07/29 10:32:52;;;;;;;5.30;2.40;;;;;;;;;;5046785;28;20187;-81
2021/07/29 10:35:40;;;;;;;3.63;2.13;;;;;;;;;;5054561;28;20194;-81
2021/07/29 10:38:06;;;;;;;7.60;3.10;;;;;;;;;;5056654;28;20169;-83
2021/07/29 10:40:36;;;;;;;4.10;2.43;;;;;;;;;;5057885;28;20632;-82
2021/07/29 10:43:21;;;;;;;3.83;2.13;;;;;;;;;;5076236;28;20172;-81
2021/07/29 10:45:51;;;;;;;5.43;2.80;;;;;;;;;;5067446;28;20245;-83
2021/07/29 10:48:36;;;;;;;5.20;2.07;;;;;;;;;;5052279;28;20193;-85
2021/07/29 10:51:11;;;;;;;4.00;2.73;;;;;;;;;;5075076;28;20197;-83
2021/07/29 10:53:41;;;;;;;5.13;2.40;;;;;;;;;;5060631;28;20185;-84
2021/07/29 10:56:14;;;;;;;4.60;2.00;;;;;;;;;;5086649;28;20216;-83
2021/07/29 10:58:41;;;;;;;5.67;2.13;;;;;;;;;;5041809;28;20177;-83
2021/07/29 11:01:07;;;;;;;4.63;2.10;;;;;;;;;;5069462;28;20169;-83
2021/07/29 11:03:33;;;;;;;3.80;2.67;;;;;;;;;;5067471;28;20867;-83
2021/07/29 11:06:07;;;;;;;5.57;2.50;;;;;;;;;;5070059;28;20634;-83
2021/07/29 11:08:33;;;;;;;3.00;2.37;;;;;;;;;;5076017;28;20193;-83
2021/07/29 11:11:00;;;;;;;4.33;1.83;;;;;;;;;;5083631;28;20181;-82
2021/07/29 11:13:28;;;;;;;4.67;2.37;;;;;;;;;;5056138;28;20189;-84
2021/07/29 11:15:55;;;;;;;4.63;2.40;;;;;;;;;;5089438;28;20232;-83
2021/07/29 11:18:21;;;;;;;5.03;2.53;;;;;;;;;;5059187;28;20180;-83
2021/07/29 11:20:48;;;;;;;5.10;2.33;;;;;;;;;;5055550;28;20178;-82
2021/07/29 11:23:14;;;;;;;13.03;3.30;;;;;;;;;;5051768;28;20270;-80
2021/07/29 11:25:59;;;;;;;6.13;2.50;;;;;;;;;;5056960;28;20200;-81
2021/07/29 11:28:26;;;;;;;4.73;2.50;;;;;;;;;;5070220;28;20209;-84
2021/07/29 11:30:52;;;;;;;4.10;2.70;;;;;;;;;;5039148;28;20192;-84
2021/07/29 11:33:22;;;;;;;7.50;3.00;;;;;;;;;;5063950;28;20173;-82
2021/07/29 11:35:56;;;;;;;7.13;2.63;;;;;;;;;;5074577;28;20217;-82
2021/07/29 11:38:25;;;;;;;3.03;2.03;;;;;;;;;;5074367;28;20238;-82
2021/07/29 11:41:00;;;;;;;5.50;2.70;;;;;;;;;;5054458;28;20177;-81
2021/07/29 11:43:28;;;;;;;9.93;2.80;;;;;;;;;;5055071;28;20202;-83
2021/07/29 11:46:04;;;;;;;5.37;3.07;;;;;;;;;;5054970;28;20246;-80
2021/07/29 11:48:30;;;;;;;2.77;2.00;;;;;;;;;;5056194;28;20214;-79
2021/07/29 11:50:56;;;;;;;6.43;2.50;;;;;;;;;;5054626;28;20182;-79
2021/07/29 11:53:36;;;;;;;4.43;2.50;;;;;;;;;;5055436;28;20218;-81
2021/07/29 11:56:02;;;;;;;4.90;2.57;;;;;;;;;;5054774;28;20289;-81
2021/07/29 11:58:28;;;;;;;4.60;2.30;;;;;;;;;;5053507;28;20231;-81
2021/07/29 12:00:54;;;;;;;3.27;2.07;;;;;;;;;;5054816;28;20188;-79
2021/07/29 12:03:28;;;;;;;2.30;2.10;;;;;;;;;;5073166;28;20179;-80
2021/07/29 12:05:55;;;;;;;2.50;1.97;;;;;;;;;;5054337;28;20261;-81
2021/07/29 12:08:21;;;;;;;4.63;2.23;;;;;;;;;;5054898;28;20736;-81
2021/07/29 12:10:47;;;;;;;4.00;2.20;;;;;;;;;;5055562;28;20224;-81
2021/07/29 12:13:14;;;;;;;4.03;2.43;;;;;;;;;;5072913;28;20187;-81
2021/07/29 12:15:40;;;;;;;4.97;2.03;;;;;;;;;;5072323;28;20205;-79
2021/07/29 12:18:19;;;;;;;3.87;2.47;;;;;;;;;;5072071;28;20180;-80
2021/07/29 12:20:57;;;;;;;4.97;2.63;;;;;;;;;;5054285;28;20207;-79
2021/07/29 12:23:24;;;;;;;6.40;2.40;;;;;;;;;;5050564;28;20188;-84
2021/07/29 12:25:51;;;;;;;4.23;2.30;;;;;;;;;;5070714;28;20184;-81
2021/07/29 12:28:37;;;;;;;3.10;1.83;;;;;;;;;;5052447;28;20180;-83
2021/07/29 12:31:15;;;;;;;7.03;2.47;;;;;;;;;;5054634;28;20616;-81
2021/07/29 12:33:48;;;;;;;4.33;2.37;;;;;;;;;;5054077;28;20271;-83
2021/07/29 12:36:14;;;;;;;5.03;2.23;;;;;;;;;;5053686;28;20279;-81
2021/07/29 12:38:40;;;;;;;4.37;1.83;;;;;;;;;;5054677;28;20183;-83
2021/07/29 12:41:06;;;;;;;3.20;2.17;;;;;;;;;;5072340;28;20176;-80
2021/07/29 12:43:34;;;;;;;3.80;2.10;;;;;;;;;;5053820;28;20200;-83
2021/07/29 12:46:04;;;;;;;3.73;2.30;;;;;;;;;;5072411;28;20168;-81
2021/07/29 12:48:31;;;;;;;3.47;2.40;;;;;;;;;;5072328;28;20204;-79
2021/07/29 12:50:58;;;;;;;7.47;2.30;;;;;;;;;;5071600;28;20177;-80
2021/07/29 12:53:24;;;;;;;4.03;2.00;;;;;;;;;;5055003;28;20184;-81
2021/07/29 12:55:51;;;;;;;4.40;2.10;;;;;;;;;;5053778;28;20204;-81
2021/07/29 12:58:18;;;;;;;4.47;2.00;;;;;;;;;;5053740;28;20583;-81
2021/07/29 13:00:45;;;;;;;2.70;2.13;;;;;;;;;;5054653;28;20173;-80
2021/07/29 13:03:26;;;;;;;3.27;2.13;;;;;;;;;;5072947;28;20275;-81
2021/07/29 13:05:53;;;;;;;4.33;2.03;;;;;;;;;;5053567;28;20189;-80
2021/07/29 13:08:19;;;;;;;3.93;1.77;;;;;;;;;;5071884;28;20215;-83
2021/07/29 13:10:45;;;;;;;5.13;1.73;;;;;;;;;;5054377;28;20199;-83
2021/07/29 13:13:12;;;;;;;7.43;2.90;;;;;;;;;;5070942;28;20183;-82
2021/07/29 13:15:38;;;;;;;4.43;2.30;;;;;;;;;;5052052;28;20211;-82
2021/07/29 13:18:05;;;;;;;4.83;2.67;;;;;;;;;;5071597;28;20513;-81
2021/07/29 13:20:31;;;;;;;2.77;2.30;;;;;;;;;;5052499;28;20294;-82
2021/07/29 13:22:58;;;;;;;3.83;2.60;;;;;;;;;;5071375;28;20557;-81
2021/07/29 13:25:24;;;;;;;8.63;3.50;;;;;;;;;;5053798;28;20176;-82
2021/07/29 13:27:50;;;;;;;7.83;3.40;;;;;;;;;;5055401;28;20262;-82
2021/07/29 13:30:17;;;;;;;6.27;3.20;;;;;;;;;;5052655;28;20187;-81
2021/07/29 13:32:43;;;;;;;7.27;3.20;;;;;;;;;;5072504;28;20176;-82
2021/07/29 13:35:09;;;;;;;4.10;2.47;;;;;;;;;;5053771;28;20207;-84
2021/07/29 13:37:36;;;;;;;6.13;2.63;;;;;;;;;;5073136;28;20164;-83
2021/07/29 13:40:03;;;;;;;4.90;2.20;;;;;;;;;;5054782;28;20233;-84
2021/07/29 13:42:29;;;;;;;3.43;2.43;;;;;;;;;;5072579;28;20172;-82
2021/07/29 13:45:15;;;;;;;4.23;2.50;;;;;;;;;;5053696;28;20609;-84
2021/07/29 13:47:41;;;;;;;4.03;2.13;;;;;;;;;;5070962;28;20195;-82
2021/07/29 13:50:07;;;;;;;4.97;2.20;;;;;;;;;;5071011;28;20183;-83
2021/07/29 13:52:34;;;;;;;6.53;2.60;;;;;;;;;;5053493;28;20188;-83
2021/07/29 13:55:00;;;;;;;3.50;1.87;;;;;;;;;;5053146;28;20211;-80
2021/07/29 13:57:26;;;;;;;5.63;2.00;;;;;;;;;;5070366;28;20354;-82
2021/07/29 13:59:52;;;;;;;3.07;2.17;;;;;;;;;;5053493;28;20216;-87
2021/07/29 14:02:18;;;;;;;3.00;2.00;;;;;;;;;;5054171;28;20222;-84
2021/07/29 14:04:52;;;;;;;6.63;2.20;;;;;;;;;;5052464;28;20182;-84
2021/07/29 14:07:18;;;;;;;4.23;1.90;;;;;;;;;;5053341;28;20221;-83
2021/07/29 14:09:46;;;;;;;7.63;2.73;;;;;;;;;;5071181;28;20191;-83
2021/07/29 14:12:12;;;;;;;7.23;2.57;;;;;;;;;;5071275;28;20180;-83
2021/07/29 14:14:40;;;;;;;4.00;2.40;;;;;;;;;;5049051;28;20189;-83
2021/07/29 14:17:14;;;;;;;3.80;2.50;;;;;;;;;;5062566;28;20268;-84
2021/07/29 14:20:00;;;;;;;5.63;2.57;;;;;;;;;;5067429;28;20568;-83
2021/07/29 14:25:10;;;;;;;4.53;1.97;;;;;;;;;;5070822;28;20203;-83
2021/07/29 14:27:36;;;;;;;4.87;2.40;;;;;;;;;;5070949;28;20241;-85
2021/07/29 14:30:06;;;;;;;5.53;2.57;;;;;;;;;;5048728;28;20208;-82
2021/07/29 14:32:32;;;;;;;2.60;2.03;;;;;;;;;;5054192;28;20369;-83
2021/07/29 14:34:58;;;;;;;5.30;2.50;;;;;;;;;;5052717;28;20288;-83
2021/07/29 14:37:27;;;;;;;5.03;2.63;;;;;;;;;;5070960;28;20200;-81
2021/07/29 14:39:57;;;;;;;4.93;1.97;;;;;;;;;;5052015;28;20284;-80
2021/07/29 14:42:26;;;;;;;4.60;2.28;;;;;;;;;;5071752;28;20895;-80
2021/07/29 14:45:00;;;;;;;3.00;2.33;;;;;;;;;;5074133;28;20165;-81
2021/07/29 14:50:12;;;;;;;6.20;2.47;;;;;;;;;;5073935;28;20324;-82
2021/07/29 14:52:38;;;;;;;3.77;2.20;;;;;;;;;;5050856;28;20177;-82